Balmville, New York
Current Conditions -  °F | °C
As of 11:45 AM on Saturday 22 Nov 2014 (Local Time) from KSWF Reporting Station
Scattered Clouds Scattered Clouds  
Wind Chill: 27°   Ceiling: Unl
Heat Index: 36°   Visibility: 20mi
Dew Point: 12°   Wind: 14mph
Humidity: 38%   Direction: 260°W
Pressure: 30.33"   Gusts: 23mph
Location:  41.5391°N, 74.0491°W
Report Text: KSWF 221645Z 26012G20KT 20SM SCT100 02/M11 A3033
Loading
Personal Weather Stations






























Interactive Weather Map New forecast layout! Learn more

10-Day Weather Forecast

Advertisements
Track Severe Weather on mobile